Time;durP1;ratioP1;P1;durP2;ratioP2;P2;SDS_P1;SDS_P2;PMS_P1;PMS_P2;Temp;Humidity;BMP_temperature;BMP_pressure;BME280_temperature;BME280_humidity;BME280_pressure;Samples;Min_cycle;Max_cycle;Signal;HPM_P1;HPM_P2
2023/09/17 00:01:03;;;;;;;6.57;4.43;;;;;;;25.32;54.88;98514.59;6879501;28;20238;-84
2023/09/17 00:04:25;;;;;;;5.10;4.50;;;;;;;24.91;54.93;98458.59;6881068;28;20215;-83
2023/09/17 00:07:47;;;;;;;6.57;4.87;;;;;;;25.40;54.65;98524.13;6880437;28;20262;-83
2023/09/17 00:11:08;;;;;;;5.53;4.93;;;;;;;25.23;55.25;98527.47;6880940;28;20451;-83
2023/09/17 00:14:31;;;;;;;6.23;5.23;;;;;;;24.95;56.06;98525.00;6877416;28;20224;-83
2023/09/17 00:17:53;;;;;;;5.93;5.33;;;;;;;24.95;55.95;98523.03;6870075;28;20265;-83
2023/09/17 00:21:14;;;;;;;6.17;5.60;;;;;;;24.72;56.73;98535.06;6865883;28;20262;-84
2023/09/17 00:24:36;;;;;;;5.20;4.77;;;;;;;24.85;56.63;98526.00;6866477;28;20298;-83
2023/09/17 00:27:58;;;;;;;5.50;4.73;;;;;;;24.91;56.07;98533.06;6866328;28;20219;-84
2023/09/17 00:31:21;;;;;;;5.47;4.93;;;;;;;24.43;57.22;98525.34;6865758;28;20210;-84
2023/09/17 00:34:43;;;;;;;13.03;5.67;;;;;;;24.41;57.77;98530.31;6866021;28;20649;-84
2023/09/17 00:38:04;;;;;;;5.87;5.37;;;;;;;24.47;57.50;98520.84;6865799;28;20279;-83
2023/09/17 00:41:26;;;;;;;6.00;5.50;;;;;;;23.99;58.61;98523.00;6864485;28;20235;-83
2023/09/17 00:44:48;;;;;;;5.87;5.33;;;;;;;24.28;58.12;98522.81;6862533;28;20625;-84
2023/09/17 00:48:12;;;;;;;5.63;5.10;;;;;;;24.52;56.88;98510.56;6865516;28;20341;-84
2023/09/17 00:51:34;;;;;;;7.30;6.13;;;;;;;24.61;56.64;98514.28;6863835;28;20610;-83
2023/09/17 00:54:56;;;;;;;6.63;5.23;;;;;;;24.38;56.74;98518.00;6865017;28;20313;-83
2023/09/17 00:58:18;;;;;;;6.83;5.93;;;;;;;24.44;56.69;98514.03;6865576;28;20369;-84
2023/09/17 01:01:39;;;;;;;6.83;5.67;;;;;;;24.21;57.31;98516.88;6864641;28;20265;-83
2023/09/17 01:05:04;;;;;;;6.93;6.23;;;;;;;24.08;57.35;98517.66;6865832;28;20302;-83
2023/09/17 01:08:27;;;;;;;6.20;5.60;;;;;;;23.60;58.74;98508.66;6838336;29;20211;-83
2023/09/17 01:11:49;;;;;;;7.20;5.47;;;;;;;23.69;58.78;98517.06;6837619;29;20378;-84
2023/09/17 01:15:11;;;;;;;6.43;5.77;;;;;;;23.82;58.31;98532.84;6863900;28;20279;-83
2023/09/17 01:18:33;;;;;;;6.90;6.00;;;;;;;23.79;58.31;98512.25;6868346;28;20223;-83
2023/09/17 01:22:01;;;;;;;6.37;5.77;;;;;;;23.76;58.48;98526.63;6865693;28;20789;-83
2023/09/17 01:25:31;;;;;;;6.43;5.77;;;;;;;23.95;58.24;98535.72;6865071;28;20596;-83
2023/09/17 01:28:54;;;;;;;6.70;5.80;;;;;;;23.90;57.65;98526.72;6864976;28;20211;-83
2023/09/17 01:32:17;;;;;;;6.00;5.50;;;;;;;24.09;56.90;98535.81;6864088;28;20231;-84
2023/09/17 01:35:57;;;;;;;6.50;5.77;;;;;;;23.52;57.06;98439.69;6864656;28;20253;-83
2023/09/17 01:39:22;;;;;;;6.17;5.57;;;;;;;24.15;56.40;98501.56;6861887;28;20236;-83
2023/09/17 01:42:46;;;;;;;6.47;5.77;;;;;;;24.10;56.31;98518.16;6861136;28;20769;-83
2023/09/17 01:46:09;;;;;;;6.53;5.90;;;;;;;23.49;57.43;98525.63;6859379;28;20200;-84
2023/09/17 01:49:32;;;;;;;7.13;5.63;;;;;;;23.73;57.14;98542.91;6863902;28;20211;-83
2023/09/17 01:52:54;;;;;;;6.60;6.00;;;;;;;23.61;57.42;98542.53;6863862;28;20591;-83
2023/09/17 01:56:17;;;;;;;6.43;5.93;;;;;;;23.36;58.31;98554.66;6863816;28;20215;-83
2023/09/17 01:59:39;;;;;;;5.87;5.30;;;;;;;23.78;56.88;98543.66;6864226;28;20323;-83
2023/09/17 02:03:03;;;;;;;6.33;5.73;;;;;;;23.65;57.39;98571.91;6863932;28;20313;-83
2023/09/17 02:06:25;;;;;;;8.10;5.93;;;;;;;22.80;59.22;98556.34;6864053;28;20207;-83
2023/09/17 02:09:46;;;;;;;6.37;5.83;;;;;;;22.98;59.34;98554.78;6864574;28;20290;-83
2023/09/17 02:13:08;;;;;;;6.17;5.57;;;;;;;23.24;59.10;98569.94;6867217;28;20706;-83
2023/09/17 02:16:31;;;;;;;7.97;6.07;;;;;;;23.46;58.59;98556.47;6864680;28;20198;-83
2023/09/17 02:19:54;;;;;;;5.80;5.30;;;;;;;23.64;57.61;98558.44;6864279;28;20240;-84
2023/09/17 02:23:15;;;;;;;6.40;5.80;;;;;;;23.24;58.86;98546.00;6863180;28;20786;-82
2023/09/17 02:26:37;;;;;;;6.10;5.50;;;;;;;23.42;58.46;98552.69;6863558;28;20214;-83
2023/09/17 02:29:58;;;;;;;6.17;5.67;;;;;;;23.26;58.09;98515.44;6863686;28;20682;-84
2023/09/17 02:33:20;;;;;;;6.13;5.53;;;;;;;23.66;57.34;98553.47;6863281;28;20375;-84
2023/09/17 02:36:43;;;;;;;6.50;5.57;;;;;;;23.80;57.43;98551.63;6863823;28;20298;-83
2023/09/17 02:40:08;;;;;;;5.70;5.00;;;;;;;24.02;56.37;98557.41;6863821;28;20231;-84
2023/09/17 02:43:30;;;;;;;6.10;5.60;;;;;;;23.77;56.92;98549.47;6863820;28;20628;-83
2023/09/17 02:46:52;;;;;;;5.73;5.23;;;;;;;23.90;56.63;98548.75;6865083;28;20202;-83
2023/09/17 02:50:13;;;;;;;5.60;5.10;;;;;;;23.91;56.21;98542.13;6865057;28;20680;-83
2023/09/17 02:53:36;;;;;;;5.73;5.23;;;;;;;23.86;55.93;98522.91;6865369;28;20323;-83
2023/09/17 02:56:58;;;;;;;6.87;5.37;;;;;;;23.86;56.00;98548.50;6865404;28;20238;-83
2023/09/17 03:00:21;;;;;;;6.03;5.53;;;;;;;23.68;56.92;98546.56;6864544;28;20779;-84
2023/09/17 03:03:42;;;;;;;6.23;5.20;;;;;;;23.61;56.56;98556.28;6863426;28;20606;-84
2023/09/17 03:07:05;;;;;;;6.53;5.90;;;;;;;23.06;57.18;98479.91;6863960;28;20345;-84
2023/09/17 03:10:28;;;;;;;6.13;5.60;;;;;;;23.53;56.83;98551.41;6868534;28;20246;-84
2023/09/17 03:13:49;;;;;;;7.87;5.80;;;;;;;23.45;57.48;98549.31;6865384;28;20271;-83
2023/09/17 03:17:11;;;;;;;5.80;5.20;;;;;;;23.07;56.68;98476.84;6866956;28;20295;-83
2023/09/17 03:20:33;;;;;;;6.50;5.43;;;;;;;23.37;57.25;98556.28;6866291;28;20372;-83
2023/09/17 03:23:56;;;;;;;6.40;5.80;;;;;;;23.28;57.67;98573.75;6867385;28;20242;-83
2023/09/17 03:27:18;;;;;;;6.60;5.97;;;;;;;22.90;59.21;98582.91;6867368;28;20669;-83
2023/09/17 03:30:40;;;;;;;5.77;5.27;;;;;;;23.38;57.92;98560.72;6866529;28;20280;-83
2023/09/17 03:34:03;;;;;;;8.17;5.60;;;;;;;23.49;57.26;98564.94;6875040;28;20271;-83
2023/09/17 03:37:25;;;;;;;5.53;5.10;;;;;;;23.32;57.01;98541.78;6877748;28;20212;-83
2023/09/17 03:40:47;;;;;;;8.00;5.83;;;;;;;22.90;58.16;98542.47;6877755;28;20245;-82
2023/09/17 03:44:10;;;;;;;6.67;6.00;;;;;;;23.19;57.93;98573.56;6878225;28;20684;-84
2023/09/17 03:47:32;;;;;;;7.57;6.13;;;;;;;21.88;59.22;98448.59;6877130;28;20215;-85
2023/09/17 03:50:53;;;;;;;7.63;5.60;;;;;;;22.83;59.35;98571.44;6877981;28;20214;-84
2023/09/17 03:54:15;;;;;;;7.67;5.60;;;;;;;22.94;58.51;98578.47;6876581;28;20254;-85
2023/09/17 03:57:37;;;;;;;7.23;6.50;;;;;;;22.75;58.95;98569.31;6877708;28;20758;-85
2023/09/17 04:01:00;;;;;;;6.63;6.03;;;;;;;22.94;58.90;98573.78;6874243;28;20231;-84
2023/09/17 04:04:22;;;;;;;7.07;6.37;;;;;;;22.72;58.49;98558.91;6875014;28;20298;-84
2023/09/17 04:07:45;;;;;;;7.10;6.50;;;;;;;22.79;58.95;98573.97;6874572;28;20199;-84
2023/09/17 04:11:07;;;;;;;6.07;5.50;;;;;;;22.51;58.09;98489.56;6874280;28;20293;-84
2023/09/17 04:14:29;;;;;;;6.23;5.63;;;;;;;23.08;58.44;98579.44;6873308;28;20279;-84
2023/09/17 04:17:52;;;;;;;7.03;5.93;;;;;;;23.04;57.99;98559.94;6874665;28;20215;-83
2023/09/17 04:21:14;;;;;;;6.50;5.77;;;;;;;23.11;57.08;98552.16;6873284;28;20241;-84
2023/09/17 04:24:38;;;;;;;6.60;5.60;;;;;;;22.80;58.24;98567.34;6872857;28;20210;-84
2023/09/17 04:27:59;;;;;;;6.50;5.90;;;;;;;22.44;59.45;98555.03;6871048;28;20225;-84
2023/09/17 04:31:21;;;;;;;6.17;5.67;;;;;;;22.67;59.16;98554.25;6872007;28;20260;-84
2023/09/17 04:34:44;;;;;;;9.13;5.73;;;;;;;22.38;58.90;98564.38;6874540;28;20349;-85
2023/09/17 04:38:07;;;;;;;6.20;5.70;;;;;;;22.54;58.81;98552.16;6871682;28;20295;-84
2023/09/17 04:41:28;;;;;;;6.83;6.23;;;;;;;22.63;59.27;98563.38;6867696;28;20222;-84
2023/09/17 04:44:50;;;;;;;6.83;6.13;;;;;;;22.66;58.70;98560.84;6862166;28;20214;-85
2023/09/17 04:48:11;;;;;;;5.83;5.33;;;;;;;22.38;59.10;98566.31;6863814;28;20329;-85
2023/09/17 04:51:34;;;;;;;6.87;5.57;;;;;;;22.21;59.58;98569.44;6866644;28;20686;-85
2023/09/17 04:54:56;;;;;;;6.60;6.00;;;;;;;22.40;59.69;98575.91;6890351;28;20292;-86
2023/09/17 04:58:17;;;;;;;6.40;5.80;;;;;;;22.50;59.08;98569.53;6890092;28;20304;-86
2023/09/17 05:01:39;;;;;;;7.67;5.80;;;;;;;22.46;59.10;98574.78;6889391;28;20689;-84
2023/09/17 05:05:00;;;;;;;6.10;5.50;;;;;;;22.64;58.97;98592.47;6890570;28;20202;-84
2023/09/17 05:08:24;;;;;;;5.93;5.43;;;;;;;22.51;59.50;98580.25;6890649;28;20304;-85
2023/09/17 05:11:45;;;;;;;8.50;5.80;;;;;;;22.53;59.60;98585.47;6889791;28;20323;-84
2023/09/17 05:15:08;;;;;;;6.53;5.93;;;;;;;21.99;59.18;98491.34;6890695;28;20319;-85
2023/09/17 05:18:29;;;;;;;6.57;5.57;;;;;;;22.46;59.49;98587.69;6890731;28;20388;-85
2023/09/17 05:21:51;;;;;;;6.20;5.60;;;;;;;22.52;59.60;98583.78;6890487;28;20784;-84
2023/09/17 05:25:13;;;;;;;6.87;6.00;;;;;;;22.56;59.51;98604.94;6891353;28;20270;-85
2023/09/17 05:28:35;;;;;;;6.87;6.00;;;;;;;22.04;61.38;98607.47;6883273;28;20233;-85
2023/09/17 05:31:56;;;;;;;6.20;5.60;;;;;;;22.41;60.53;98610.50;6862364;28;20258;-85
2023/09/17 05:35:18;;;;;;;6.70;5.57;;;;;;;22.69;59.35;98598.78;6864092;28;20220;-84
2023/09/17 05:38:39;;;;;;;8.57;5.50;;;;;;;22.91;58.89;98629.38;6864749;28;20290;-84
2023/09/17 05:42:02;;;;;;;6.97;5.07;;;;;;;23.06;58.87;98612.72;6862428;28;20309;-85
2023/09/17 05:45:25;;;;;;;6.23;5.73;;;;;;;23.08;58.15;98617.94;6862641;28;20294;-84
2023/09/17 05:48:46;;;;;;;6.60;6.00;;;;;;;22.54;58.37;98534.88;6862866;28;20202;-84
2023/09/17 05:52:08;;;;;;;6.03;5.47;;;;;;;22.92;58.65;98586.19;6863229;28;20645;-84
2023/09/17 05:55:30;;;;;;;6.07;5.53;;;;;;;23.16;58.64;98626.41;6864526;28;20241;-84
2023/09/17 05:58:52;;;;;;;7.00;6.30;;;;;;;23.28;57.55;98626.00;6863854;28;20722;-84
2023/09/17 06:02:14;;;;;;;6.10;5.50;;;;;;;23.09;58.38;98622.31;6863695;28;20307;-84
2023/09/17 06:05:36;;;;;;;7.07;5.90;;;;;;;23.17;58.27;98584.03;6869643;28;20215;-84
2023/09/17 06:08:57;;;;;;;5.87;5.37;;;;;;;23.75;57.18;98580.03;6880486;28;20205;-83
2023/09/17 06:12:19;;;;;;;6.17;5.67;;;;;;;24.02;56.25;98612.50;6880800;28;20713;-83
2023/09/17 06:15:43;;;;;;;5.90;5.30;;;;;;;24.05;55.81;98620.16;6865574;28;20208;-83
2023/09/17 06:19:04;;;;;;;7.13;4.90;;;;;;;24.11;55.62;98619.78;6865115;28;20265;-84
2023/09/17 06:22:26;;;;;;;5.97;5.47;;;;;;;24.01;55.67;98627.38;6864386;28;20237;-84
2023/09/17 06:25:47;;;;;;;5.80;5.20;;;;;;;24.19;56.13;98626.59;6863506;28;20292;-84
2023/09/17 06:29:09;;;;;;;7.97;5.23;;;;;;;24.16;55.33;98618.91;6863740;28;20296;-84
2023/09/17 06:32:32;;;;;;;5.67;5.10;;;;;;;24.12;55.37;98623.38;6862550;28;20227;-84
2023/09/17 06:35:53;;;;;;;6.20;5.63;;;;;;;23.81;56.73;98630.34;6862305;28;20280;-84
2023/09/17 06:39:15;;;;;;;5.97;5.47;;;;;;;23.88;57.13;98628.09;6862332;28;20326;-84
2023/09/17 06:42:36;;;;;;;5.53;5.10;;;;;;;24.15;56.62;98629.13;6861082;28;20228;-83
2023/09/17 06:45:59;;;;;;;10.53;5.40;;;;;;;23.96;56.28;98624.69;6862140;28;20291;-84
2023/09/17 06:49:22;;;;;;;5.40;4.43;;;;;;;24.17;55.96;98620.53;6862188;28;20210;-84
2023/09/17 06:52:43;;;;;;;5.70;5.20;;;;;;;24.36;55.10;98632.41;6859172;28;20325;-83
2023/09/17 06:56:04;;;;;;;5.00;4.60;;;;;;;24.66;54.44;98635.53;6841573;29;20786;-84
2023/09/17 06:59:26;;;;;;;5.07;4.67;;;;;;;24.77;54.57;98633.44;6841255;29;20252;-84
2023/09/17 07:02:48;;;;;;;5.07;4.67;;;;;;;24.87;54.91;98636.00;6840602;29;20300;-84
2023/09/17 07:06:11;;;;;;;5.23;4.60;;;;;;;24.81;53.43;98552.56;6841474;28;20211;-83
2023/09/17 07:09:32;;;;;;;6.60;5.90;;;;;;;25.69;51.29;98542.00;6864950;28;20627;-85
2023/09/17 07:12:54;;;;;;;5.07;4.60;;;;;;;26.85;49.14;98623.13;6859891;28;20657;-85
2023/09/17 07:16:17;;;;;;;4.63;4.23;;;;;;;27.58;49.04;98620.63;6863193;28;20731;-84
2023/09/17 07:19:39;;;;;;;5.23;4.73;;;;;;;28.16;46.68;98623.94;6863836;28;20229;-84
2023/09/17 07:23:02;;;;;;;4.50;4.10;;;;;;;28.00;45.56;98606.13;6862936;28;20235;-84
2023/09/17 07:26:23;;;;;;;4.90;3.80;;;;;;;27.72;46.01;98615.81;6865012;28;20273;-83
2023/09/17 07:29:45;;;;;;;4.63;3.80;;;;;;;28.21;44.99;98626.56;6864703;28;20297;-83
2023/09/17 07:33:07;;;;;;;4.33;3.93;;;;;;;27.71;44.73;98601.13;6863970;28;20234;-83
2023/09/17 07:36:29;;;;;;;3.97;3.67;;;;;;;27.58;45.87;98624.22;6863751;28;20320;-84
2023/09/17 07:39:55;;;;;;;4.40;4.10;;;;;;;27.33;46.60;98626.88;6862848;28;20233;-84
2023/09/17 07:43:17;;;;;;;4.37;3.97;;;;;;;27.48;46.37;98649.44;6862657;28;20585;-84
2023/09/17 07:46:38;;;;;;;4.53;4.10;;;;;;;27.40;46.28;98644.66;6863781;28;20292;-84
2023/09/17 07:50:00;;;;;;;4.83;4.43;;;;;;;27.04;46.96;98620.97;6873462;28;20209;-84
2023/09/17 07:53:21;;;;;;;4.57;4.17;;;;;;;26.68;46.87;98553.81;6880075;28;20224;-83
2023/09/17 07:56:44;;;;;;;4.70;4.30;;;;;;;27.12;46.67;98645.09;6872094;28;20803;-86
2023/09/17 08:00:07;;;;;;;4.17;3.70;;;;;;;27.03;46.89;98642.31;6871623;28;20225;-84
2023/09/17 08:03:29;;;;;;;4.33;3.93;;;;;;;27.09;46.38;98587.63;6878055;28;20231;-84
2023/09/17 08:06:50;;;;;;;4.17;3.77;;;;;;;27.39;46.30;98653.28;6845098;29;20341;-83
2023/09/17 08:10:12;;;;;;;4.40;4.00;;;;;;;27.66;45.48;98659.44;6845066;29;20206;-83
2023/09/17 08:13:35;;;;;;;4.57;4.17;;;;;;;27.93;45.09;98650.13;6844068;29;20261;-84
2023/09/17 08:16:56;;;;;;;4.63;4.10;;;;;;;27.97;44.88;98660.28;6867658;28;20251;-84
2023/09/17 08:20:18;;;;;;;4.47;3.83;;;;;;;27.96;44.29;98613.47;6897593;28;20318;-83
2023/09/17 08:23:40;;;;;;;4.83;4.13;;;;;;;28.48;43.90;98657.63;6898051;28;20747;-84
2023/09/17 08:27:01;;;;;;;3.87;3.57;;;;;;;28.39;43.25;98669.88;6897779;28;20296;-84
2023/09/17 08:30:24;;;;;;;4.40;3.97;;;;;;;28.52;43.05;98652.25;6896868;28;20213;-83
2023/09/17 08:33:46;;;;;;;4.23;3.80;;;;;;;29.01;42.47;98671.25;6895700;28;20368;-85
2023/09/17 08:37:07;;;;;;;4.00;3.70;;;;;;;29.30;42.27;98663.03;6870325;28;20707;-83
2023/09/17 08:40:31;;;;;;;3.80;3.50;;;;;;;29.44;41.44;98656.16;6869593;28;20233;-83
2023/09/17 08:43:54;;;;;;;4.17;3.83;;;;;;;29.40;41.13;98623.78;6868675;28;20316;-83
2023/09/17 08:47:17;;;;;;;5.17;3.40;;;;;;;30.01;40.25;98601.78;6869849;28;20272;-86
2023/09/17 08:50:39;;;;;;;6.67;3.57;;;;;;;30.40;40.19;98625.63;6868426;28;20342;-84
2023/09/17 08:54:05;;;;;;;4.00;3.70;;;;;;;31.05;39.28;98659.19;6867993;28;20279;-84
2023/09/17 08:57:28;;;;;;;4.23;3.50;;;;;;;31.06;38.43;98661.63;6868737;28;20251;-83
2023/09/17 09:00:51;;;;;;;3.80;3.50;;;;;;;31.84;38.10;98654.94;6866993;28;20232;-84
2023/09/17 09:04:14;;;;;;;3.63;3.33;;;;;;;32.91;36.19;98653.22;6867699;28;20237;-84
2023/09/17 09:07:36;;;;;;;3.70;3.40;;;;;;;33.07;35.67;98653.31;6867788;28;20209;-83
2023/09/17 09:10:58;;;;;;;4.00;3.60;;;;;;;32.14;38.64;98653.53;6866585;28;20718;-80
2023/09/17 09:14:20;;;;;;;3.97;3.60;;;;;;;33.06;36.95;98646.91;6865988;28;20716;-80
2023/09/17 09:17:42;;;;;;;3.47;3.17;;;;;;;32.97;36.16;98651.81;6866335;28;20348;-85
2023/09/17 09:21:05;;;;;;;3.37;3.07;;;;;;;31.89;37.64;98640.75;6883320;28;20693;-84
2023/09/17 09:24:29;;;;;;;4.20;3.03;;;;;;;33.03;36.48;98646.81;6894858;28;20236;-85
2023/09/17 09:27:51;;;;;;;4.10;3.10;;;;;;;32.60;34.94;98644.69;6893664;28;20276;-85
2023/09/17 09:31:13;;;;;;;4.03;3.30;;;;;;;33.57;35.09;98643.19;6893113;28;20206;-85
2023/09/17 09:34:35;;;;;;;4.20;3.40;;;;;;;33.37;36.01;98644.22;6893165;28;20230;-84
2023/09/17 09:37:58;;;;;;;3.43;3.13;;;;;;;33.13;33.90;98566.06;6892603;28;20732;-85
2023/09/17 09:41:19;;;;;;;4.27;3.30;;;;;;;34.19;33.04;98634.00;6892672;28;20293;-85
2023/09/17 09:44:42;;;;;;;4.57;3.07;;;;;;;34.45;31.40;98620.22;6892937;28;20741;-84
2023/09/17 09:48:13;;;;;;;3.37;3.07;;;;;;;34.40;31.01;98565.34;6883859;28;20295;-85
2023/09/17 09:51:36;;;;;;;4.80;2.50;;;;;;;34.98;28.51;98620.25;6865453;28;20735;-85
2023/09/17 09:54:58;;;;;;;5.33;2.30;;;;;;;34.84;28.36;98619.16;6865541;28;20213;-84
2023/09/17 09:58:20;;;;;;;4.50;2.43;;;;;;;35.26;27.77;98625.66;6865751;28;20354;-84
2023/09/17 10:01:42;;;;;;;3.17;2.17;;;;;;;35.22;28.24;98625.53;6865659;28;20256;-85
2023/09/17 10:05:05;;;;;;;4.00;2.87;;;;;;;35.41;27.68;98608.72;6865184;28;20268;-84
2023/09/17 10:08:26;;;;;;;6.33;2.50;;;;;;;35.68;27.43;98604.81;6864474;28;20221;-84
2023/09/17 10:11:49;;;;;;;5.23;2.50;;;;;;;35.79;27.50;98588.19;6865119;28;20288;-85
2023/09/17 10:15:13;;;;;;;10.87;2.53;;;;;;;35.15;27.34;98596.56;6865060;28;20268;-85
2023/09/17 10:18:36;;;;;;;4.77;2.43;;;;;;;35.85;27.08;98587.47;6864992;28;20739;-85
2023/09/17 10:21:58;;;;;;;5.20;2.30;;;;;;;36.38;26.24;98582.72;6884767;28;20224;-85
2023/09/17 10:25:20;;;;;;;4.60;2.50;;;;;;;36.31;27.16;98579.81;6891447;28;20797;-84
2023/09/17 10:28:44;;;;;;;6.10;2.30;;;;;;;36.63;25.77;98573.50;6836966;29;20248;-86
2023/09/17 10:32:06;;;;;;;4.10;2.83;;;;;;;36.29;26.29;98580.19;6850411;28;20253;-85
2023/09/17 10:35:29;;;;;;;5.20;2.73;;;;;;;34.97;27.72;98517.72;6863662;28;20363;-85
2023/09/17 10:38:54;;;;;;;5.10;2.60;;;;;;;35.81;26.30;98568.97;6864477;28;20224;-87
2023/09/17 10:42:16;;;;;;;5.57;2.43;;;;;;;34.47;28.89;98576.69;6864064;28;20229;-84
2023/09/17 10:45:41;;;;;;;5.73;2.80;;;;;;;34.79;28.08;98569.00;6865916;28;20593;-85
2023/09/17 10:49:03;;;;;;;2.80;2.17;;;;;;;35.37;27.78;98553.75;6864773;28;20731;-83
2023/09/17 10:52:24;;;;;;;3.93;2.60;;;;;;;36.07;26.81;98564.19;6862506;28;20708;-85
2023/09/17 10:55:52;;;;;;;3.53;2.50;;;;;;;35.73;26.48;98554.00;6863630;28;20284;-85
2023/09/17 10:59:15;;;;;;;7.73;2.90;;;;;;;34.76;27.56;98544.50;6862484;28;20208;-86
2023/09/17 11:02:40;;;;;;;7.73;2.50;;;;;;;35.67;26.30;98547.06;6853612;28;20708;-86
2023/09/17 11:06:03;;;;;;;5.33;2.70;;;;;;;35.24;27.25;98552.28;6861430;28;20212;-85
2023/09/17 11:09:24;;;;;;;6.10;2.60;;;;;;;34.49;28.56;98553.94;6860980;28;20348;-86
2023/09/17 11:12:46;;;;;;;4.37;2.50;;;;;;;34.98;28.33;98566.19;6861187;28;20320;-86
2023/09/17 11:16:07;;;;;;;6.57;2.40;;;;;;;35.11;27.92;98567.63;6862263;28;20698;-86
2023/09/17 11:19:30;;;;;;;4.67;2.40;;;;;;;35.39;27.01;98537.34;6861472;28;20224;-85
2023/09/17 11:22:51;;;;;;;6.17;2.67;;;;;;;35.16;27.05;98533.69;6860672;28;20844;-86
2023/09/17 11:26:15;;;;;;;6.13;2.70;;;;;;;35.79;26.72;98546.88;6861778;28;20212;-86
2023/09/17 11:29:40;;;;;;;8.20;2.73;;;;;;;35.38;26.44;98542.13;6854363;28;20205;-86
2023/09/17 11:33:04;;;;;;;5.97;2.87;;;;;;;34.91;27.99;98550.03;6865489;28;20328;-86
2023/09/17 11:36:27;;;;;;;7.20;2.70;;;;;;;34.72;27.09;98518.41;6865695;28;20681;-85
2023/09/17 11:39:52;;;;;;;5.47;2.87;;;;;;;35.90;26.13;98549.88;6865655;28;20206;-86
2023/09/17 11:43:14;;;;;;;3.80;2.40;;;;;;;36.21;25.65;98511.09;6865143;28;20233;-86
2023/09/17 11:46:37;;;;;;;4.10;2.40;;;;;;;36.58;24.26;98556.94;6865444;28;20241;-85
2023/09/17 11:49:58;;;;;;;3.70;1.97;;;;;;;35.78;24.70;98545.25;6866029;28;20225;-85
2023/09/17 11:53:21;;;;;;;4.53;2.23;;;;;;;35.54;25.68;98536.44;6864694;28;20237;-86
2023/09/17 11:56:47;;;;;;;6.67;2.20;;;;;;;34.92;26.23;98522.81;6864830;28;20301;-85
2023/09/17 12:00:11;;;;;;;3.77;2.23;;;;;;;35.55;25.49;98496.75;6865093;28;20201;-84
2023/09/17 12:03:33;;;;;;;4.33;2.17;;;;;;;35.06;25.84;98525.88;6864699;28;20257;-84
2023/09/17 12:06:55;;;;;;;4.57;2.20;;;;;;;36.03;25.76;98524.00;6865555;28;20300;-85
2023/09/17 12:10:21;;;;;;;4.20;2.50;;;;;;;35.78;26.00;98520.00;6887014;28;20193;-87
2023/09/17 12:13:43;;;;;;;5.53;2.50;;;;;;;35.06;26.53;98514.66;6888018;28;20229;-88
2023/09/17 12:17:04;;;;;;;4.83;2.40;;;;;;;35.85;25.71;98437.94;6864662;28;20206;-87
2023/09/17 12:20:40;;;;;;;7.80;2.67;;;;;;;36.20;25.82;98500.22;6863992;28;20271;-86
2023/09/17 12:24:06;;;;;;;5.90;2.30;;;;;;;36.13;25.52;98508.53;6864749;28;20236;-86
2023/09/17 12:27:34;;;;;;;3.90;2.17;;;;;;;36.31;25.76;98495.56;6864868;28;20209;-86
2023/09/17 12:30:56;;;;;;;5.60;2.60;;;;;;;36.24;26.09;98484.22;6864330;28;20252;-86
2023/09/17 12:34:18;;;;;;;3.33;2.27;;;;;;;34.86;27.33;98490.69;6864738;28;20236;-86
2023/09/17 12:37:39;;;;;;;4.60;2.30;;;;;;;34.57;27.19;98440.84;6864837;28;20348;-86
2023/09/17 12:41:01;;;;;;;3.43;2.00;;;;;;;35.48;26.21;98491.03;6861677;28;20229;-87
2023/09/17 12:44:26;;;;;;;4.70;2.40;;;;;;;34.95;27.32;98471.66;6862984;28;20302;-87
2023/09/17 12:47:47;;;;;;;4.77;2.50;;;;;;;35.78;26.96;98472.31;6863122;28;20224;-86
2023/09/17 12:51:09;;;;;;;3.90;2.30;;;;;;;35.88;26.40;98471.66;6862973;28;20727;-87
2023/09/17 12:54:31;;;;;;;7.23;2.40;;;;;;;35.52;26.23;98452.66;6863346;28;20245;-87
2023/09/17 12:57:52;;;;;;;4.47;2.40;;;;;;;36.22;25.95;98476.19;6862889;28;20296;-86
2023/09/17 13:01:15;;;;;;;5.30;2.53;;;;;;;36.34;25.88;98464.72;6861591;28;20725;-87
2023/09/17 13:04:38;;;;;;;8.03;2.40;;;;;;;35.62;26.39;98460.44;6862598;28;20346;-86
2023/09/17 13:08:03;;;;;;;3.23;2.10;;;;;;;35.70;26.68;98461.34;6862815;28;20209;-86
2023/09/17 13:11:25;;;;;;;3.50;2.00;;;;;;;36.48;26.50;98459.25;6861979;28;20343;-86
2023/09/17 13:14:50;;;;;;;4.50;2.13;;;;;;;36.54;25.62;98454.13;6862361;28;20312;-87
2023/09/17 13:18:13;;;;;;;2.57;2.03;;;;;;;36.08;26.55;98456.31;6862534;28;20558;-86
2023/09/17 13:21:34;;;;;;;3.47;2.17;;;;;;;36.10;26.00;98411.00;6861596;28;20647;-86
2023/09/17 13:24:57;;;;;;;4.60;2.27;;;;;;;36.28;25.80;98443.78;6862623;28;20252;-87
2023/09/17 13:28:19;;;;;;;2.43;2.20;;;;;;;36.07;26.87;98437.06;6862141;28;20300;-87
2023/09/17 13:31:41;;;;;;;2.90;2.10;;;;;;;36.44;25.67;98452.00;6861965;28;20271;-86
2023/09/17 13:35:09;;;;;;;5.83;2.70;;;;;;;35.93;25.08;98436.84;6862574;28;20348;-85
2023/09/17 13:38:30;;;;;;;5.03;2.73;;;;;;;35.95;26.59;98443.69;6861304;28;20267;-85
2023/09/17 13:41:55;;;;;;;7.33;3.17;;;;;;;36.62;25.01;98434.16;6861219;28;20340;-86
2023/09/17 13:45:17;;;;;;;5.57;2.60;;;;;;;36.06;26.49;98441.84;6862320;28;20213;-86
2023/09/17 13:48:39;;;;;;;7.60;2.40;;;;;;;36.05;26.74;98431.81;6861765;28;20265;-87
2023/09/17 13:52:01;;;;;;;7.23;2.50;;;;;;;35.60;25.50;98434.72;6860620;28;20710;-87
2023/09/17 13:55:23;;;;;;;6.27;2.10;;;;;;;35.24;26.55;98414.91;6861119;28;20242;-87
2023/09/17 13:58:45;;;;;;;3.83;2.40;;;;;;;35.66;26.38;98429.63;6860751;28;20278;-87
2023/09/17 14:02:06;;;;;;;3.67;1.87;;;;;;;35.74;26.45;98415.34;6860807;28;20756;-87
2023/09/17 14:05:28;;;;;;;4.30;2.40;;;;;;;35.91;26.38;98413.97;6861705;28;20342;-86
2023/09/17 14:08:51;;;;;;;4.20;2.50;;;;;;;35.96;25.52;98414.44;6861503;28;20217;-87
2023/09/17 14:12:12;;;;;;;5.00;2.27;;;;;;;35.13;27.38;98411.91;6860788;28;20663;-88
2023/09/17 14:15:35;;;;;;;6.90;2.30;;;;;;;35.63;26.21;98388.28;6862142;28;20220;-87
2023/09/17 14:18:57;;;;;;;5.00;2.30;;;;;;;36.07;25.92;98400.56;6861000;28;20625;-88
2023/09/17 14:22:18;;;;;;;7.10;2.53;;;;;;;36.09;26.21;98387.75;6860614;28;20612;-88
2023/09/17 14:25:41;;;;;;;4.47;2.10;;;;;;;36.38;25.50;98394.53;6860529;28;20205;-87
2023/09/17 14:29:03;;;;;;;5.67;2.30;;;;;;;36.25;25.68;98379.16;6860622;28;20360;-88
2023/09/17 14:32:25;;;;;;;4.97;2.30;;;;;;;35.65;26.53;98375.50;6858066;28;20230;-88
2023/09/17 14:35:46;;;;;;;4.37;2.40;;;;;;;35.56;26.50;98379.75;6861039;28;20275;-87
2023/09/17 14:39:08;;;;;;;4.83;2.53;;;;;;;35.62;26.25;98337.00;6861164;28;20352;-87
2023/09/17 14:42:31;;;;;;;2.87;2.10;;;;;;;35.61;25.54;98354.19;6860262;28;20367;-87
2023/09/17 14:45:52;;;;;;;4.73;2.13;;;;;;;34.79;25.88;98325.25;6860387;28;20236;-87
2023/09/17 14:49:14;;;;;;;7.17;2.40;;;;;;;34.79;26.36;98331.66;6868702;28;20217;-86
2023/09/17 14:52:36;;;;;;;4.40;2.33;;;;;;;35.08;26.15;98308.50;6876016;28;20244;-87
2023/09/17 14:55:57;;;;;;;3.60;2.13;;;;;;;35.84;25.53;98338.09;6861052;28;20292;-87
2023/09/17 14:59:20;;;;;;;6.13;2.37;;;;;;;35.49;26.17;98332.78;6861172;28;20279;-87
2023/09/17 15:02:42;;;;;;;5.10;2.10;;;;;;;35.28;25.90;98290.44;6859497;28;20289;-86
2023/09/17 15:06:03;;;;;;;4.57;2.23;;;;;;;35.61;25.14;98328.94;6864960;28;20344;-87
2023/09/17 15:09:25;;;;;;;4.13;2.10;;;;;;;36.05;25.63;98338.34;6865798;28;20235;-87
2023/09/17 15:12:47;;;;;;;4.17;1.93;;;;;;;35.00;25.52;98334.00;6865406;28;20270;-87
2023/09/17 15:16:10;;;;;;;4.30;1.80;;;;;;;34.35;25.88;98322.03;6865112;28;20213;-87
2023/09/17 15:19:32;;;;;;;3.93;1.90;;;;;;;35.45;25.55;98319.91;6866148;28;20245;-87
2023/09/17 15:22:53;;;;;;;4.00;2.13;;;;;;;35.36;25.83;98308.97;6865156;28;20735;-87
2023/09/17 15:26:15;;;;;;;5.07;2.93;;;;;;;35.46;26.14;98313.09;6865659;28;20255;-86
2023/09/17 15:29:36;;;;;;;7.37;2.50;;;;;;;35.51;25.55;98312.78;6865476;28;20234;-86
2023/09/17 15:32:59;;;;;;;3.03;2.17;;;;;;;35.40;25.80;98306.19;6864585;28;20728;-86
2023/09/17 15:36:21;;;;;;;4.77;2.20;;;;;;;35.28;24.87;98312.88;6864662;28;20515;-86
2023/09/17 15:39:43;;;;;;;5.20;2.27;;;;;;;35.67;25.60;98311.38;6865473;28;20801;-86
2023/09/17 15:43:05;;;;;;;3.80;2.27;;;;;;;35.20;25.55;98299.09;6865119;28;20913;-86
2023/09/17 15:46:26;;;;;;;3.47;2.20;;;;;;;35.06;25.60;98296.03;6865056;28;20209;-86
2023/09/17 15:49:49;;;;;;;5.30;2.13;;;;;;;34.67;25.72;98219.75;6865502;28;20296;-87
2023/09/17 15:53:11;;;;;;;5.47;2.03;;;;;;;35.04;25.97;98307.66;6864754;28;20244;-87